sensor_id;sensor_type;location;lat;lon;timestamp;pressure;altitude;pressure_sealevel;temperature
23992;BMP280;12205;50.600;4.608;2023-03-01T00:02:13;101562.09;;;0.64
23992;BMP280;12205;50.600;4.608;2023-03-01T00:04:39;101553.38;;;0.63
23992;BMP280;12205;50.600;4.608;2023-03-01T00:07:06;101558.44;;;0.65
23992;BMP280;12205;50.600;4.608;2023-03-01T00:09:33;101552.59;;;0.63
23992;BMP280;12205;50.600;4.608;2023-03-01T00:12:04;101543.94;;;0.62
23992;BMP280;12205;50.600;4.608;2023-03-01T00:14:31;101548.94;;;0.64
23992;BMP280;12205;50.600;4.608;2023-03-01T00:16:59;101550.53;;;0.65
23992;BMP280;12205;50.600;4.608;2023-03-01T00:19:26;101548.94;;;0.64
23992;BMP280;12205;50.600;4.608;2023-03-01T00:21:53;101545.75;;;0.62
23992;BMP280;12205;50.600;4.608;2023-03-01T00:24:19;101546.81;;;0.61
23992;BMP280;12205;50.600;4.608;2023-03-01T00:26:46;101542.59;;;0.60
23992;BMP280;12205;50.600;4.608;2023-03-01T00:29:15;101547.53;;;0.56
23992;BMP280;12205;50.600;4.608;2023-03-01T00:31:41;101546.19;;;0.54
23992;BMP280;12205;50.600;4.608;2023-03-01T00:34:09;101542.00;;;0.53
23992;BMP280;12205;50.600;4.608;2023-03-01T00:36:37;101537.19;;;0.49
23992;BMP280;12205;50.600;4.608;2023-03-01T00:39:05;101531.41;;;0.47
23992;BMP280;12205;50.600;4.608;2023-03-01T00:41:34;101532.19;;;0.48
23992;BMP280;12205;50.600;4.608;2023-03-01T00:44:01;101530.38;;;0.48
23992;BMP280;12205;50.600;4.608;2023-03-01T00:46:30;101527.19;;;0.46
23992;BMP280;12205;50.600;4.608;2023-03-01T00:48:57;101518.75;;;0.44
23992;BMP280;12205;50.600;4.608;2023-03-01T00:51:26;101512.88;;;0.37
23992;BMP280;12205;50.600;4.608;2023-03-01T00:53:54;101518.94;;;0.38
23992;BMP280;12205;50.600;4.608;2023-03-01T00:56:22;101517.59;;;0.35
23992;BMP280;12205;50.600;4.608;2023-03-01T00:58:49;101515.97;;;0.29
23992;BMP280;12205;50.600;4.608;2023-03-01T01:01:18;101508.06;;;0.24
23992;BMP280;12205;50.600;4.608;2023-03-01T01:03:48;101517.47;;;0.20
23992;BMP280;12205;50.600;4.608;2023-03-01T01:06:17;101511.91;;;0.16
23992;BMP280;12205;50.600;4.608;2023-03-01T01:08:44;101514.47;;;0.11
23992;BMP280;12205;50.600;4.608;2023-03-01T01:11:12;101503.66;;;0.07
23992;BMP280;12205;50.600;4.608;2023-03-01T01:13:39;101503.34;;;0.04
23992;BMP280;12205;50.600;4.608;2023-03-01T01:16:07;101508.78;;;-0.03
23992;BMP280;12205;50.600;4.608;2023-03-01T01:18:34;101512.94;;;-0.07
23992;BMP280;12205;50.600;4.608;2023-03-01T01:21:07;101510.25;;;-0.12
23992;BMP280;12205;50.600;4.608;2023-03-01T01:23:34;101508.34;;;-0.17
23992;BMP280;12205;50.600;4.608;2023-03-01T01:26:06;101506.47;;;-0.22
23992;BMP280;12205;50.600;4.608;2023-03-01T01:28:33;101498.00;;;-0.24
23992;BMP280;12205;50.600;4.608;2023-03-01T01:31:00;101501.69;;;-0.25
23992;BMP280;12205;50.600;4.608;2023-03-01T01:33:27;101507.91;;;-0.31
23992;BMP280;12205;50.600;4.608;2023-03-01T01:35:54;101500.91;;;-0.42
23992;BMP280;12205;50.600;4.608;2023-03-01T01:38:22;101497.25;;;-0.41
23992;BMP280;12205;50.600;4.608;2023-03-01T01:40:50;101498.53;;;-0.44
23992;BMP280;12205;50.600;4.608;2023-03-01T01:43:23;101493.53;;;-0.45
23992;BMP280;12205;50.600;4.608;2023-03-01T01:45:51;101491.91;;;-0.46
23992;BMP280;12205;50.600;4.608;2023-03-01T01:48:20;101484.53;;;-0.49
23992;BMP280;12205;50.600;4.608;2023-03-01T01:50:54;101488.19;;;-0.51
23992;BMP280;12205;50.600;4.608;2023-03-01T01:53:24;101477.13;;;-0.53
23992;BMP280;12205;50.600;4.608;2023-03-01T01:55:54;101477.19;;;-0.47
23992;BMP280;12205;50.600;4.608;2023-03-01T01:58:24;101470.13;;;-0.47
23992;BMP280;12205;50.600;4.608;2023-03-01T02:00:52;101476.16;;;-0.46
23992;BMP280;12205;50.600;4.608;2023-03-01T02:03:23;101466.69;;;-0.47
23992;BMP280;12205;50.600;4.608;2023-03-01T02:05:57;101464.63;;;-0.45
23992;BMP280;12205;50.600;4.608;2023-03-01T02:08:29;101467.25;;;-0.45
23992;BMP280;12205;50.600;4.608;2023-03-01T02:10:58;101456.50;;;-0.44
23992;BMP280;12205;50.600;4.608;2023-03-01T02:13:26;101449.81;;;-0.52
23992;BMP280;12205;50.600;4.608;2023-03-01T02:15:54;101446.69;;;-0.48
23992;BMP280;12205;50.600;4.608;2023-03-01T02:18:22;101441.44;;;-0.48
23992;BMP280;12205;50.600;4.608;2023-03-01T02:21:01;101439.63;;;-0.48
23992;BMP280;12205;50.600;4.608;2023-03-01T02:23:32;101435.16;;;-0.47
23992;BMP280;12205;50.600;4.608;2023-03-01T02:26:05;101430.72;;;-0.47
23992;BMP280;12205;50.600;4.608;2023-03-01T02:28:36;101427.28;;;-0.47
23992;BMP280;12205;50.600;4.608;2023-03-01T02:31:05;101417.81;;;-0.48
23992;BMP280;12205;50.600;4.608;2023-03-01T02:33:51;101420.44;;;-0.48
23992;BMP280;12205;50.600;4.608;2023-03-01T02:36:21;101410.69;;;-0.53
23992;BMP280;12205;50.600;4.608;2023-03-01T02:38:52;101415.94;;;-0.53
23992;BMP280;12205;50.600;4.608;2023-03-01T02:41:21;101414.34;;;-0.54
23992;BMP280;12205;50.600;4.608;2023-03-01T02:43:49;101406.69;;;-0.56
23992;BMP280;12205;50.600;4.608;2023-03-01T02:46:18;101402.47;;;-0.57
23992;BMP280;12205;50.600;4.608;2023-03-01T02:48:48;101401.94;;;-0.59
23992;BMP280;12205;50.600;4.608;2023-03-01T02:51:42;101402.44;;;-0.62
23992;BMP280;12205;50.600;4.608;2023-03-01T02:54:17;101405.06;;;-0.62
23992;BMP280;12205;50.600;4.608;2023-03-01T02:56:47;101405.53;;;-0.65
23992;BMP280;12205;50.600;4.608;2023-03-01T02:59:20;101400.53;;;-0.66
23992;BMP280;12205;50.600;4.608;2023-03-01T03:01:48;101398.16;;;-0.68
23992;BMP280;12205;50.600;4.608;2023-03-01T03:04:19;101391.78;;;-0.72
23992;BMP280;12205;50.600;4.608;2023-03-01T03:06:49;101392.28;;;-0.75
23992;BMP280;12205;50.600;4.608;2023-03-01T03:09:18;101392.28;;;-0.75
23992;BMP280;12205;50.600;4.608;2023-03-01T03:11:46;101379.91;;;-0.80
23992;BMP280;12205;50.600;4.608;2023-03-01T03:14:15;101385.94;;;-0.79
23992;BMP280;12205;50.600;4.608;2023-03-01T03:16:48;101389.59;;;-0.80
23992;BMP280;12205;50.600;4.608;2023-03-01T03:19:16;101386.41;;;-0.82
23992;BMP280;12205;50.600;4.608;2023-03-01T03:21:43;101388.47;;;-0.85
23992;BMP280;12205;50.600;4.608;2023-03-01T03:24:10;101383.22;;;-0.85
23992;BMP280;12205;50.600;4.608;2023-03-01T03:26:37;101380.84;;;-0.86
23992;BMP280;12205;50.600;4.608;2023-03-01T03:29:04;101379.25;;;-0.87
23992;BMP280;12205;50.600;4.608;2023-03-01T03:31:31;101373.72;;;-0.91
23992;BMP280;12205;50.600;4.608;2023-03-01T03:33:59;101370.53;;;-0.93
23992;BMP280;12205;50.600;4.608;2023-03-01T03:36:26;101363.72;;;-0.94
23992;BMP280;12205;50.600;4.608;2023-03-01T03:38:53;101368.97;;;-0.94
23992;BMP280;12205;50.600;4.608;2023-03-01T03:41:20;101360.03;;;-0.93
23992;BMP280;12205;50.600;4.608;2023-03-01T03:43:47;101367.34;;;-0.95
23992;BMP280;12205;50.600;4.608;2023-03-01T03:46:14;101367.34;;;-0.95
23992;BMP280;12205;50.600;4.608;2023-03-01T03:48:43;101361.31;;;-0.95
23992;BMP280;12205;50.600;4.608;2023-03-01T03:51:12;101367.84;;;-0.98
23992;BMP280;12205;50.600;4.608;2023-03-01T03:53:40;101363.91;;;-0.95
23992;BMP280;12205;50.600;4.608;2023-03-01T03:56:07;101371.56;;;-0.94
23992;BMP280;12205;50.600;4.608;2023-03-01T03:58:35;101371.78;;;-0.95
23992;BMP280;12205;50.600;4.608;2023-03-01T04:01:02;101361.00;;;-0.99
23992;BMP280;12205;50.600;4.608;2023-03-01T04:03:31;101367.53;;;-1.02
23992;BMP280;12205;50.600;4.608;2023-03-01T04:06:00;101366.25;;;-0.99
23992;BMP280;12205;50.600;4.608;2023-03-01T04:08:28;101365.75;;;-0.96
23992;BMP280;12205;50.600;4.608;2023-03-01T04:11:00;101364.16;;;-0.97
23992;BMP280;12205;50.600;4.608;2023-03-01T04:13:47;101363.13;;;-0.96
23992;BMP280;12205;50.600;4.608;2023-03-01T04:16:15;101367.59;;;-0.96
23992;BMP280;12205;50.600;4.608;2023-03-01T04:18:41;101362.59;;;-0.98
23992;BMP280;12205;50.600;4.608;2023-03-01T04:21:08;101357.88;;;-0.96
23992;BMP280;12205;50.600;4.608;2023-03-01T04:23:38;101351.84;;;-0.96
23992;BMP280;12205;50.600;4.608;2023-03-01T04:26:06;101348.44;;;-0.97
23992;BMP280;12205;50.600;4.608;2023-03-01T04:28:35;101343.97;;;-0.96
23992;BMP280;12205;50.600;4.608;2023-03-01T04:31:04;101338.50;;;-0.95
23992;BMP280;12205;50.600;4.608;2023-03-01T04:33:39;101334.84;;;-0.94
23992;BMP280;12205;50.600;4.608;2023-03-01T04:36:07;101345.34;;;-0.94
23992;BMP280;12205;50.600;4.608;2023-03-01T04:38:35;101333.16;;;-1.00
23992;BMP280;12205;50.600;4.608;2023-03-01T04:41:04;101340.97;;;-1.05
23992;BMP280;12205;50.600;4.608;2023-03-01T04:43:32;101334.63;;;-1.09
23992;BMP280;12205;50.600;4.608;2023-03-01T04:46:00;101335.91;;;-1.12
23992;BMP280;12205;50.600;4.608;2023-03-01T04:48:29;101344.31;;;-1.10
23992;BMP280;12205;50.600;4.608;2023-03-01T04:50:58;101340.44;;;-1.07
23992;BMP280;12205;50.600;4.608;2023-03-01T04:53:25;101333.34;;;-1.07
23992;BMP280;12205;50.600;4.608;2023-03-01T04:55:53;101326.22;;;-1.11
23992;BMP280;12205;50.600;4.608;2023-03-01T04:58:22;101329.38;;;-1.09
23992;BMP280;12205;50.600;4.608;2023-03-01T05:00:49;101334.63;;;-1.09
23992;BMP280;12205;50.600;4.608;2023-03-01T05:03:16;101327.47;;;-1.14
23992;BMP280;12205;50.600;4.608;2023-03-01T05:05:45;101328.75;;;-1.16
23992;BMP280;12205;50.600;4.608;2023-03-01T05:08:13;101324.00;;;-1.20
23992;BMP280;12205;50.600;4.608;2023-03-01T05:10:43;101323.22;;;-1.20
23992;BMP280;12205;50.600;4.608;2023-03-01T05:13:12;101313.19;;;-1.23
23992;BMP280;12205;50.600;4.608;2023-03-01T05:15:42;101308.19;;;-1.25
23992;BMP280;12205;50.600;4.608;2023-03-01T05:18:08;101303.50;;;-1.23
23992;BMP280;12205;50.600;4.608;2023-03-01T05:20:37;101295.06;;;-1.25
23992;BMP280;12205;50.600;4.608;2023-03-01T05:23:04;101303.97;;;-1.26
23992;BMP280;12205;50.600;4.608;2023-03-01T05:25:33;101293.47;;;-1.26
23992;BMP280;12205;50.600;4.608;2023-03-01T05:28:00;101298.25;;;-1.23
23992;BMP280;12205;50.600;4.608;2023-03-01T05:30:30;101299.03;;;-1.22
23992;BMP280;12205;50.600;4.608;2023-03-01T05:33:00;101298.25;;;-1.23
23992;BMP280;12205;50.600;4.608;2023-03-01T05:35:27;101294.78;;;-1.28
23992;BMP280;12205;50.600;4.608;2023-03-01T05:37:55;101303.41;;;-1.28
23992;BMP280;12205;50.600;4.608;2023-03-01T05:40:23;101307.56;;;-1.32
23992;BMP280;12205;50.600;4.608;2023-03-01T05:42:52;101309.41;;;-1.32
23992;BMP280;12205;50.600;4.608;2023-03-01T05:45:20;101317.94;;;-1.37
23992;BMP280;12205;50.600;4.608;2023-03-01T05:47:48;101307.94;;;-1.40
23992;BMP280;12205;50.600;4.608;2023-03-01T05:50:18;101301.09;;;-1.41
23992;BMP280;12205;50.600;4.608;2023-03-01T05:52:47;101311.28;;;-1.45
23992;BMP280;12205;50.600;4.608;2023-03-01T05:55:15;101308.91;;;-1.46
23992;BMP280;12205;50.600;4.608;2023-03-01T05:57:42;101300.25;;;-1.47
23992;BMP280;12205;50.600;4.608;2023-03-01T06:00:10;101306.28;;;-1.46
23992;BMP280;12205;50.600;4.608;2023-03-01T06:02:41;101304.94;;;-1.49
23992;BMP280;12205;50.600;4.608;2023-03-01T06:05:09;101304.84;;;-1.54
23992;BMP280;12205;50.600;4.608;2023-03-01T06:07:38;101304.53;;;-1.58
23992;BMP280;12205;50.600;4.608;2023-03-01T06:10:07;101301.13;;;-1.58
23992;BMP280;12205;50.600;4.608;2023-03-01T06:12:36;101298.25;;;-1.57
23992;BMP280;12205;50.600;4.608;2023-03-01T06:15:04;101300.63;;;-1.55
23992;BMP280;12205;50.600;4.608;2023-03-01T06:17:33;101290.41;;;-1.57
23992;BMP280;12205;50.600;4.608;2023-03-01T06:20:03;101295.09;;;-1.59
23992;BMP280;12205;50.600;4.608;2023-03-01T06:22:30;101295.09;;;-1.59
23992;BMP280;12205;50.600;4.608;2023-03-01T06:24:59;101301.63;;;-1.61
23992;BMP280;12205;50.600;4.608;2023-03-01T06:27:25;101295.56;;;-1.62
23992;BMP280;12205;50.600;4.608;2023-03-01T06:29:52;101292.41;;;-1.64
23992;BMP280;12205;50.600;4.608;2023-03-01T06:32:20;101287.16;;;-1.64
23992;BMP280;12205;50.600;4.608;2023-03-01T06:34:47;101288.19;;;-1.65
23992;BMP280;12205;50.600;4.608;2023-03-01T06:37:13;101275.00;;;-1.70
23992;BMP280;12205;50.600;4.608;2023-03-01T06:39:40;101278.72;;;-1.66
23992;BMP280;12205;50.600;4.608;2023-03-01T06:42:09;101284.53;;;-1.64
23992;BMP280;12205;50.600;4.608;2023-03-01T06:44:36;101285.56;;;-1.65
23992;BMP280;12205;50.600;4.608;2023-03-01T06:47:04;101286.03;;;-1.68
23992;BMP280;12205;50.600;4.608;2023-03-01T06:49:31;101277.16;;;-1.67
23992;BMP280;12205;50.600;4.608;2023-03-01T06:51:57;101283.19;;;-1.66
23992;BMP280;12205;50.600;4.608;2023-03-01T06:54:25;101275.56;;;-1.68
23992;BMP280;12205;50.600;4.608;2023-03-01T06:56:52;101291.53;;;-1.70
23992;BMP280;12205;50.600;4.608;2023-03-01T06:59:20;101284.94;;;-1.72
23992;BMP280;12205;50.600;4.608;2023-03-01T07:01:47;101291.78;;;-1.71
23992;BMP280;12205;50.600;4.608;2023-03-01T07:04:14;101289.59;;;-1.74
23992;BMP280;12205;50.600;4.608;2023-03-01T07:06:41;101290.66;;;-1.75
23992;BMP280;12205;50.600;4.608;2023-03-01T07:09:07;101278.09;;;-1.73
23992;BMP280;12205;50.600;4.608;2023-03-01T07:11:35;101287.31;;;-1.71
23992;BMP280;12205;50.600;4.608;2023-03-01T07:14:02;101283.66;;;-1.70
23992;BMP280;12205;50.600;4.608;2023-03-01T07:16:30;101283.41;;;-1.68
23992;BMP280;12205;50.600;4.608;2023-03-01T07:18:57;101292.41;;;-1.64
23992;BMP280;12205;50.600;4.608;2023-03-01T07:21:24;101281.91;;;-1.64
23992;BMP280;12205;50.600;4.608;2023-03-01T07:23:51;101292.47;;;-1.59
23992;BMP280;12205;50.600;4.608;2023-03-01T07:26:18;101281.09;;;-1.64
23992;BMP280;12205;50.600;4.608;2023-03-01T07:28:45;101273.16;;;-1.53
23992;BMP280;12205;50.600;4.608;2023-03-01T07:31:12;101273.78;;;-1.45
23992;BMP280;12205;50.600;4.608;2023-03-01T07:33:40;101274.88;;;-1.41
23992;BMP280;12205;50.600;4.608;2023-03-01T07:36:08;101271.34;;;-1.35
23992;BMP280;12205;50.600;4.608;2023-03-01T07:38:35;101261.72;;;-1.29
23992;BMP280;12205;50.600;4.608;2023-03-01T07:41:03;101265.97;;;-1.23
23992;BMP280;12205;50.600;4.608;2023-03-01T07:43:31;101263.75;;;-1.14
23992;BMP280;12205;50.600;4.608;2023-03-01T07:45:59;101262.75;;;-1.08
23992;BMP280;12205;50.600;4.608;2023-03-01T07:48:27;101267.03;;;-1.02
23992;BMP280;12205;50.600;4.608;2023-03-01T07:50:57;101268.66;;;-0.96
23992;BMP280;12205;50.600;4.608;2023-03-01T07:53:24;101268.75;;;-0.91
23992;BMP280;12205;50.600;4.608;2023-03-01T07:56:00;101271.97;;;-0.83
23992;BMP280;12205;50.600;4.608;2023-03-01T07:58:27;101273.63;;;-0.77
23992;BMP280;12205;50.600;4.608;2023-03-01T08:00:54;101266.88;;;-0.68
23992;BMP280;12205;50.600;4.608;2023-03-01T08:03:21;101269.81;;;-0.64
23992;BMP280;12205;50.600;4.608;2023-03-01T08:05:47;101273.81;;;-0.57
23992;BMP280;12205;50.600;4.608;2023-03-01T08:08:16;101274.91;;;-0.53
23992;BMP280;12205;50.600;4.608;2023-03-01T08:10:43;101267.34;;;-0.49
23992;BMP280;12205;50.600;4.608;2023-03-01T08:13:10;101275.53;;;-0.45
23992;BMP280;12205;50.600;4.608;2023-03-01T08:15:37;101276.63;;;-0.41
23992;BMP280;12205;50.600;4.608;2023-03-01T08:18:04;101275.09;;;-0.37
23992;BMP280;12205;50.600;4.608;2023-03-01T08:20:32;101280.41;;;-0.32
23992;BMP280;12205;50.600;4.608;2023-03-01T08:22:59;101274.16;;;-0.26
23992;BMP280;12205;50.600;4.608;2023-03-01T08:25:27;101276.34;;;-0.18
23992;BMP280;12205;50.600;4.608;2023-03-01T08:27:54;101282.19;;;-0.10
23992;BMP280;12205;50.600;4.608;2023-03-01T08:30:21;101274.34;;;-0.05
23992;BMP280;12205;50.600;4.608;2023-03-01T08:32:49;101275.44;;;0.04
23992;BMP280;12205;50.600;4.608;2023-03-01T08:35:16;101277.34;;;0.09
23992;BMP280;12205;50.600;4.608;2023-03-01T08:37:43;101285.03;;;0.15
23992;BMP280;12205;50.600;4.608;2023-03-01T08:40:11;101270.31;;;0.20
23992;BMP280;12205;50.600;4.608;2023-03-01T08:42:40;101270.13;;;0.26
23992;BMP280;12205;50.600;4.608;2023-03-01T08:45:09;101265.41;;;0.33
23992;BMP280;12205;50.600;4.608;2023-03-01T08:47:36;101271.47;;;0.39
23992;BMP280;12205;50.600;4.608;2023-03-01T08:50:04;101263.06;;;0.42
23992;BMP280;12205;50.600;4.608;2023-03-01T08:52:32;101265.75;;;0.47
23992;BMP280;12205;50.600;4.608;2023-03-01T08:54:59;101271.78;;;0.48
23992;BMP280;12205;50.600;4.608;2023-03-01T08:57:27;101273.69;;;0.58
23992;BMP280;12205;50.600;4.608;2023-03-01T08:59:55;101266.38;;;0.65
23992;BMP280;12205;50.600;4.608;2023-03-01T09:02:22;101270.88;;;0.70
23992;BMP280;12205;50.600;4.608;2023-03-01T09:04:49;101273.75;;;0.73
23992;BMP280;12205;50.600;4.608;2023-03-01T09:07:16;101272.75;;;0.79
23992;BMP280;12205;50.600;4.608;2023-03-01T09:09:43;101266.72;;;0.84
23992;BMP280;12205;50.600;4.608;2023-03-01T09:12:10;101272.25;;;0.88
23992;BMP280;12205;50.600;4.608;2023-03-01T09:14:37;101266.22;;;0.92
23992;BMP280;12205;50.600;4.608;2023-03-01T09:17:05;101278.09;;;1.00
23992;BMP280;12205;50.600;4.608;2023-03-01T09:19:32;101273.91;;;1.04
23992;BMP280;12205;50.600;4.608;2023-03-01T09:21:59;101263.94;;;1.11
23992;BMP280;12205;50.600;4.608;2023-03-01T09:24:26;101268.19;;;1.17
23992;BMP280;12205;50.600;4.608;2023-03-01T09:26:54;101262.94;;;1.28
23992;BMP280;12205;50.600;4.608;2023-03-01T09:29:22;101258.72;;;1.37
23992;BMP280;12205;50.600;4.608;2023-03-01T09:31:49;101244.50;;;1.43
23992;BMP280;12205;50.600;4.608;2023-03-01T09:34:17;101248.19;;;1.52
23992;BMP280;12205;50.600;4.608;2023-03-01T09:36:49;101253.47;;;1.58
23992;BMP280;12205;50.600;4.608;2023-03-01T09:39:17;101245.56;;;1.58
23992;BMP280;12205;50.600;4.608;2023-03-01T09:41:47;101260.84;;;1.71
23992;BMP280;12205;50.600;4.608;2023-03-01T09:44:24;101258.22;;;1.76
23992;BMP280;12205;50.600;4.608;2023-03-01T09:46:52;101257.19;;;1.82
23992;BMP280;12205;50.600;4.608;2023-03-01T09:49:23;101252.97;;;1.86
23992;BMP280;12205;50.600;4.608;2023-03-01T09:51:59;101255.56;;;1.97
23992;BMP280;12205;50.600;4.608;2023-03-01T09:54:27;101256.63;;;2.06
23992;BMP280;12205;50.600;4.608;2023-03-01T09:57:07;101254.25;;;2.15
23992;BMP280;12205;50.600;4.608;2023-03-01T10:02:39;101262.66;;;2.27
23992;BMP280;12205;50.600;4.608;2023-03-01T10:05:28;101262.66;;;2.27
23992;BMP280;12205;50.600;4.608;2023-03-01T10:08:05;101253.41;;;2.35
23992;BMP280;12205;50.600;4.608;2023-03-01T10:10:34;101256.00;;;2.40
23992;BMP280;12205;50.600;4.608;2023-03-01T10:13:10;101250.19;;;2.48
23992;BMP280;12205;50.600;4.608;2023-03-01T10:15:45;101247.03;;;2.51
23992;BMP280;12205;50.600;4.608;2023-03-01T10:18:18;101244.63;;;2.60
23992;BMP280;12205;50.600;4.608;2023-03-01T10:20:52;101248.03;;;2.66
23992;BMP280;12205;50.600;4.608;2023-03-01T10:23:20;101250.94;;;2.64
23992;BMP280;12205;50.600;4.608;2023-03-01T10:26:02;101243.00;;;2.69
23992;BMP280;12205;50.600;4.608;2023-03-01T10:28:39;101249.53;;;2.82
23992;BMP280;12205;50.600;4.608;2023-03-01T10:31:12;101242.38;;;2.93
23992;BMP280;12205;50.600;4.608;2023-03-01T10:33:40;101247.34;;;3.00
23992;BMP280;12205;50.600;4.608;2023-03-01T10:36:09;101247.81;;;3.07
23992;BMP280;12205;50.600;4.608;2023-03-01T10:38:48;101243.03;;;3.14
23992;BMP280;12205;50.600;4.608;2023-03-01T10:41:18;101244.81;;;3.24
23992;BMP280;12205;50.600;4.608;2023-03-01T10:43:49;101232.88;;;3.32
23992;BMP280;12205;50.600;4.608;2023-03-01T10:46:23;101245.53;;;3.30
23992;BMP280;12205;50.600;4.608;2023-03-01T10:49:06;101244.97;;;3.38
23992;BMP280;12205;50.600;4.608;2023-03-01T10:51:34;101234.94;;;3.40
23992;BMP280;12205;50.600;4.608;2023-03-01T10:54:02;101228.31;;;3.42
23992;BMP280;12205;50.600;4.608;2023-03-01T10:56:45;101221.13;;;3.48
23992;BMP280;12205;50.600;4.608;2023-03-01T10:59:22;101223.72;;;3.53
23992;BMP280;12205;50.600;4.608;2023-03-01T11:02:07;101240.03;;;3.60
23992;BMP280;12205;50.600;4.608;2023-03-01T11:04:56;101236.56;;;3.65
23992;BMP280;12205;50.600;4.608;2023-03-01T11:07:24;101243.66;;;3.70
23992;BMP280;12205;50.600;4.608;2023-03-01T11:09:51;101237.28;;;3.76
23992;BMP280;12205;50.600;4.608;2023-03-01T11:12:20;101245.94;;;3.82
23992;BMP280;12205;50.600;4.608;2023-03-01T11:14:48;101247.69;;;3.91
23992;BMP280;12205;50.600;4.608;2023-03-01T11:17:20;101242.38;;;3.96
23992;BMP280;12205;50.600;4.608;2023-03-01T11:20:00;101247.09;;;4.00
23992;BMP280;12205;50.600;4.608;2023-03-01T11:22:31;101239.09;;;4.05
23992;BMP280;12205;50.600;4.608;2023-03-01T11:25:01;101238.28;;;4.04
23992;BMP280;12205;50.600;4.608;2023-03-01T11:27:31;101240.63;;;4.11
23992;BMP280;12205;50.600;4.608;2023-03-01T11:30:01;101248.50;;;4.16
23992;BMP280;12205;50.600;4.608;2023-03-01T11:32:35;101227.59;;;4.20
23992;BMP280;12205;50.600;4.608;2023-03-01T11:35:10;101219.38;;;4.21
23992;BMP280;12205;50.600;4.608;2023-03-01T11:37:44;101226.38;;;4.31
23992;BMP280;12205;50.600;4.608;2023-03-01T11:40:23;101218.03;;;4.43
23992;BMP280;12205;50.600;4.608;2023-03-01T11:42:59;101220.59;;;4.48
23992;BMP280;12205;50.600;4.608;2023-03-01T11:45:32;101221.84;;;4.56
23992;BMP280;12205;50.600;4.608;2023-03-01T11:48:11;101224.63;;;4.64
23992;BMP280;12205;50.600;4.608;2023-03-01T11:50:44;101212.34;;;4.74
23992;BMP280;12205;50.600;4.608;2023-03-01T11:53:33;101209.34;;;4.80
23992;BMP280;12205;50.600;4.608;2023-03-01T11:56:15;101212.09;;;4.89
23992;BMP280;12205;50.600;4.608;2023-03-01T11:58:56;101214.19;;;4.92
23992;BMP280;12205;50.600;4.608;2023-03-01T12:01:32;101199.28;;;4.96
23992;BMP280;12205;50.600;4.608;2023-03-01T12:07:14;101198.19;;;5.16
23992;BMP280;12205;50.600;4.608;2023-03-01T12:09:52;101183.56;;;5.19
23992;BMP280;12205;50.600;4.608;2023-03-01T12:12:30;101178.09;;;5.29
23992;BMP280;12205;50.600;4.608;2023-03-01T12:15:26;101170.81;;;5.35
23992;BMP280;12205;50.600;4.608;2023-03-01T12:18:13;101168.59;;;5.42
23992;BMP280;12205;50.600;4.608;2023-03-01T12:20:53;101165.16;;;5.55
23992;BMP280;12205;50.600;4.608;2023-03-01T12:23:39;101158.41;;;5.63
23992;BMP280;12205;50.600;4.608;2023-03-01T12:26:18;101146.50;;;5.74
23992;BMP280;12205;50.600;4.608;2023-03-01T12:28:54;101150.16;;;5.92
23992;BMP280;12205;50.600;4.608;2023-03-01T12:31:46;101144.22;;;6.09
23992;BMP280;12205;50.600;4.608;2023-03-01T12:34:31;101140.47;;;6.47
23992;BMP280;12205;50.600;4.608;2023-03-01T12:37:13;101148.28;;;6.89
23992;BMP280;12205;50.600;4.608;2023-03-01T12:39:53;101141.78;;;7.44
23992;BMP280;12205;50.600;4.608;2023-03-01T12:42:27;101137.69;;;8.04
23992;BMP280;12205;50.600;4.608;2023-03-01T12:48:22;101119.13;;;9.46
23992;BMP280;12205;50.600;4.608;2023-03-01T12:50:52;101106.63;;;10.22
23992;BMP280;12205;50.600;4.608;2023-03-01T12:53:24;101098.03;;;11.11
23992;BMP280;12205;50.600;4.608;2023-03-01T12:55:53;101096.84;;;11.90
23992;BMP280;12205;50.600;4.608;2023-03-01T12:58:28;101090.59;;;12.78
23992;BMP280;12205;50.600;4.608;2023-03-01T13:01:04;101095.34;;;13.59
23992;BMP280;12205;50.600;4.608;2023-03-01T13:03:42;101083.94;;;14.28
23992;BMP280;12205;50.600;4.608;2023-03-01T13:06:12;101080.81;;;14.79
23992;BMP280;12205;50.600;4.608;2023-03-01T13:08:48;101078.47;;;15.34
23992;BMP280;12205;50.600;4.608;2023-03-01T13:11:18;101083.50;;;15.73
23992;BMP280;12205;50.600;4.608;2023-03-01T13:13:47;101077.75;;;16.20
23992;BMP280;12205;50.600;4.608;2023-03-01T13:16:39;101074.09;;;16.57
23992;BMP280;12205;50.600;4.608;2023-03-01T13:19:13;101076.91;;;16.78
23992;BMP280;12205;50.600;4.608;2023-03-01T13:21:42;101085.94;;;17.18
23992;BMP280;12205;50.600;4.608;2023-03-01T13:24:24;101081.38;;;17.40
23992;BMP280;12205;50.600;4.608;2023-03-01T13:27:24;101074.47;;;17.61
23992;BMP280;12205;50.600;4.608;2023-03-01T13:29:57;101071.38;;;17.84
23992;BMP280;12205;50.600;4.608;2023-03-01T13:32:30;101061.34;;;18.10
23992;BMP280;12205;50.600;4.608;2023-03-01T13:34:59;101057.06;;;18.16
23992;BMP280;12205;50.600;4.608;2023-03-01T13:37:28;101055.50;;;18.25
23992;BMP280;12205;50.600;4.608;2023-03-01T13:39:58;101055.06;;;18.49
23992;BMP280;12205;50.600;4.608;2023-03-01T13:42:38;101053.00;;;18.81
23992;BMP280;12205;50.600;4.608;2023-03-01T13:45:17;101047.16;;;18.79
23992;BMP280;12205;50.600;4.608;2023-03-01T13:47:45;101042.16;;;18.81
23992;BMP280;12205;50.600;4.608;2023-03-01T13:50:19;101039.69;;;19.05
23992;BMP280;12205;50.600;4.608;2023-03-01T13:52:50;101023.72;;;19.18
23992;BMP280;12205;50.600;4.608;2023-03-01T13:55:21;101022.56;;;19.68
23992;BMP280;12205;50.600;4.608;2023-03-01T13:57:51;101013.72;;;19.63
23992;BMP280;12205;50.600;4.608;2023-03-01T14:00:36;101019.22;;;19.94
23992;BMP280;12205;50.600;4.608;2023-03-01T14:03:12;101006.50;;;20.22
23992;BMP280;12205;50.600;4.608;2023-03-01T14:05:41;101010.03;;;20.19
23992;BMP280;12205;50.600;4.608;2023-03-01T14:08:22;101015.66;;;20.35
23992;BMP280;12205;50.600;4.608;2023-03-01T14:10:58;101011.69;;;20.43
23992;BMP280;12205;50.600;4.608;2023-03-01T14:13:45;101014.88;;;20.00
23992;BMP280;12205;50.600;4.608;2023-03-01T14:16:27;101016.53;;;20.25
23992;BMP280;12205;50.600;4.608;2023-03-01T14:19:06;101010.03;;;20.50
23992;BMP280;12205;50.600;4.608;2023-03-01T14:21:35;101012.81;;;20.73
23992;BMP280;12205;50.600;4.608;2023-03-01T14:24:03;101015.81;;;20.82
23992;BMP280;12205;50.600;4.608;2023-03-01T14:26:37;101005.22;;;20.61
23992;BMP280;12205;50.600;4.608;2023-03-01T14:29:04;101011.56;;;20.51
23992;BMP280;12205;50.600;4.608;2023-03-01T14:31:36;100992.78;;;20.36